Time;durP1;ratioP1;P1;durP2;ratioP2;P2;SDS_P1;SDS_P2;PMS_P1;PMS_P2;Temp;Humidity;BMP_temperature;BMP_pressure;BME280_temperature;BME280_humidity;BME280_pressure;Samples;Min_cycle;Max_cycle;Signal;HPM_P1;HPM_P2
2022/01/29 00:01:52;;;;;;;8.20;3.60;;;8.10;99.90;;;;;;5090389;28;20127;-86
2022/01/29 00:04:20;;;;;;;6.38;3.55;;;8.40;99.90;;;;;;5074466;28;20407;-86
2022/01/29 00:06:49;;;;;;;8.48;4.82;;;8.90;99.90;;;;;;5072183;28;20104;-86
2022/01/29 00:09:24;;;;;;;5.10;2.72;;;8.40;99.90;;;;;;5090577;28;20076;-86
2022/01/29 00:12:04;;;;;;;6.40;3.90;;;8.60;99.90;;;;;;5090301;27;20128;-87
2022/01/29 00:14:38;;;;;;;8.40;4.35;;;9.00;99.90;;;;;;5070207;28;20047;-86
2022/01/29 00:17:04;;;;;;;7.93;4.68;;;9.20;99.90;;;;;;5069258;28;20541;-86
2022/01/29 00:19:40;;;;;;;6.72;3.63;;;9.50;99.90;;;;;;5070750;28;21498;-86
2022/01/29 00:22:11;;;;;;;10.43;4.78;;;8.00;99.90;;;;;;5080724;28;20048;-86
2022/01/29 00:24:45;;;;;;;9.07;4.43;;;8.00;99.90;;;;;;5085853;28;20044;-86
2022/01/29 00:27:14;;;;;;;8.65;4.60;;;8.70;99.90;;;;;;5083960;28;21182;-86
2022/01/29 00:29:42;;;;;;;8.27;4.50;;;8.00;99.90;;;;;;5072648;28;20148;-86
2022/01/29 00:32:10;;;;;;;7.97;4.43;;;8.00;99.90;;;;;;5082614;28;20063;-86
2022/01/29 00:34:40;;;;;;;16.55;4.68;;;8.70;99.90;;;;;;5088139;28;20033;-86
2022/01/29 00:37:12;;;;;;;9.38;5.05;;;8.00;99.90;;;;;;5068443;28;20113;-86
2022/01/29 00:39:43;;;;;;;;;;;8.90;99.90;;;;;;5078845;28;20132;-86
2022/01/29 00:42:23;;;;;;;7.40;3.00;;;7.90;99.90;;;;;;5074817;28;19924;-86
2022/01/29 00:44:55;;;;;;;6.70;4.35;;;9.90;99.90;;;;;;5069358;28;20092;-86
2022/01/29 00:47:37;;;;;;;12.40;4.38;;;8.60;99.90;;;;;;5075258;28;20055;-86
2022/01/29 00:50:06;;;;;;;9.63;4.22;;;8.10;99.90;;;;;;5075963;28;20045;-86
2022/01/29 00:52:37;;;;;;;9.77;4.28;;;8.20;99.90;;;;;;5068586;28;20067;-86
2022/01/29 00:55:10;;;;;;;9.30;4.75;;;8.20;99.90;;;;;;5067967;28;20049;-86
2022/01/29 00:57:39;;;;;;;10.02;5.10;;;8.30;99.90;;;;;;5094467;28;20152;-86
2022/01/29 01:00:14;;;;;;;9.60;4.53;;;8.40;99.90;;;;;;5074109;28;20102;-86
2022/01/29 01:02:49;;;;;;;12.50;5.68;;;8.70;99.90;;;;;;5083600;28;20155;-86
2022/01/29 01:05:19;;;;;;;8.27;4.95;;;8.90;99.90;;;;;;5074212;28;20136;-86
2022/01/29 01:07:55;;;;;;;10.25;6.43;;;7.50;99.90;;;;;;5069390;28;20056;-86
2022/01/29 01:10:23;;;;;;;12.45;5.25;;;8.30;99.90;;;;;;5084076;28;20036;-86
2022/01/29 01:12:52;;;;;;;9.50;5.07;;;8.30;99.90;;;;;;5075178;28;20041;-86
2022/01/29 01:15:20;;;;;;;8.85;4.57;;;8.00;99.90;;;;;;5064168;28;20037;-86
2022/01/29 01:17:52;;;;;;;9.70;4.20;;;8.10;99.90;;;;;;5076831;28;20041;-85
2022/01/29 01:20:29;;;;;;;9.38;5.65;;;7.20;99.90;;;;;;5072147;28;20461;-86
2022/01/29 01:23:03;;;;;;;14.20;5.43;;;8.60;99.90;;;;;;5066768;28;20134;-85
2022/01/29 01:25:38;;;;;;;9.93;5.55;;;7.20;99.90;;;;;;5072779;28;20120;-86
2022/01/29 01:28:08;;;;;;;11.25;5.45;;;8.10;99.90;;;;;;5073063;28;20176;-86
2022/01/29 01:30:35;;;;;;;11.43;5.18;;;8.70;99.90;;;;;;5068358;28;20040;-86
2022/01/29 01:33:11;;;;;;;11.80;5.68;;;8.60;99.90;;;;;;5066027;28;20539;-86
2022/01/29 01:35:54;;;;;;;11.45;4.90;;;8.10;99.90;;;;;;5076395;28;20069;-86
2022/01/29 01:38:45;;;;;;;11.38;4.88;;;8.50;99.90;;;;;;5075393;28;20051;-86
2022/01/29 01:41:15;;;;;;;8.00;3.70;;;9.20;99.90;;;;;;5074482;28;20447;-85
2022/01/29 01:43:43;;;;;;;11.98;4.97;;;8.60;99.90;;;;;;5078077;28;20045;-86
2022/01/29 01:46:24;;;;;;;9.55;4.55;;;7.90;99.90;;;;;;5069944;28;20064;-86
2022/01/29 01:48:53;;;;;;;10.18;4.68;;;8.30;99.90;;;;;;5071550;28;20041;-85
2022/01/29 01:51:30;;;;;;;8.25;3.97;;;8.30;99.90;;;;;;5070712;28;20915;-85
2022/01/29 01:53:57;;;;;;;11.07;5.65;;;8.20;99.90;;;;;;5078331;28;20040;-85
2022/01/29 01:56:29;;;;;;;12.55;5.15;;;8.50;99.90;;;;;;5073162;28;20530;-85
2022/01/29 01:58:58;;;;;;;11.95;4.55;;;8.40;99.90;;;;;;5073283;28;20040;-85
2022/01/29 02:01:24;;;;;;;10.90;4.35;;;8.80;99.90;;;;;;5068736;28;20045;-86
2022/01/29 02:04:05;;;;;;;8.95;4.30;;;9.00;99.90;;;;;;5070179;28;20045;-85
2022/01/29 02:06:44;;;;;;;12.25;4.47;;;8.20;99.90;;;;;;5072695;28;20041;-86
2022/01/29 02:09:15;;;;;;;12.77;4.75;;;8.20;99.90;;;;;;5075772;28;20099;-85
2022/01/29 02:12:14;;;;;;;7.80;4.55;;;8.20;99.90;;;;;;5067614;28;20565;-86
2022/01/29 02:14:45;;;;;;;12.85;4.55;;;6.60;99.90;;;;;;5074588;28;20560;-85
2022/01/29 02:17:17;;;;;;;7.97;4.47;;;8.20;99.90;;;;;;5071061;28;20053;-86
2022/01/29 02:19:43;;;;;;;9.25;5.30;;;9.00;99.90;;;;;;5073777;28;20056;-86
2022/01/29 02:22:18;;;;;;;7.97;3.90;;;7.10;99.90;;;;;;5077199;28;20039;-85
2022/01/29 02:24:51;;;;;;;13.48;5.45;;;8.20;99.90;;;;;;5084196;28;20131;-85
2022/01/29 02:27:22;;;;;;;8.48;3.72;;;9.20;99.90;;;;;;5066579;28;20047;-85
2022/01/29 02:29:53;;;;;;;6.63;3.97;;;8.30;99.90;;;;;;5065641;28;20578;-85
2022/01/29 02:32:52;;;;;;;;;;;;;;;;;;;;;
2022/01/29 02:35:19;;;;;;;7.32;4.00;;;9.20;99.90;;;;;;5070279;28;43423;-85
2022/01/29 02:37:57;;;;;;;11.82;5.22;;;8.00;99.90;;;;;;5073993;28;20457;-85
2022/01/29 02:40:39;;;;;;;9.10;4.68;;;8.50;99.90;;;;;;5084763;28;20075;-85
2022/01/29 02:43:46;;;;;;;7.13;3.55;;;8.10;99.90;;;;;;5068994;28;20502;-85
2022/01/29 02:46:29;;;;;;;14.38;6.00;;;8.60;99.90;;;;;;5070718;28;20565;-85
2022/01/29 02:49:01;;;;;;;9.85;4.78;;;9.10;99.90;;;;;;5070757;28;20479;-86
2022/01/29 02:51:49;;;;;;;8.30;4.20;;;8.50;99.90;;;;;;5073623;28;20067;-86
2022/01/29 02:54:23;;;;;;;8.20;4.28;;;8.40;99.90;;;;;;5071498;28;20328;-85
2022/01/29 02:56:53;;;;;;;10.50;5.40;;;8.10;99.90;;;;;;5068130;28;20422;-85
2022/01/29 02:59:27;;;;;;;9.82;4.18;;;8.70;99.90;;;;;;5068613;28;20033;-86
2022/01/29 03:01:58;;;;;;;9.27;5.78;;;7.10;99.90;;;;;;5073136;28;20052;-86
2022/01/29 03:04:26;;;;;;;11.05;4.93;;;8.30;99.90;;;;;;5070457;28;20053;-86
2022/01/29 03:06:55;;;;;;;9.63;4.95;;;8.00;99.90;;;;;;5067438;28;20041;-85
2022/01/29 03:09:21;;;;;;;10.88;5.72;;;8.30;99.90;;;;;;5068477;28;20048;-85
2022/01/29 03:12:15;;;;;;;7.65;4.68;;;8.10;99.90;;;;;;5072111;28;20123;-85
2022/01/29 03:14:58;;;;;;;11.20;5.40;;;7.70;99.90;;;;;;5066656;28;20075;-84
2022/01/29 03:17:42;;;;;;;10.82;4.70;;;9.30;99.90;;;;;;5071281;28;20044;-85
2022/01/29 03:20:11;;;;;;;10.07;5.15;;;8.10;99.90;;;;;;5069929;28;20456;-85
2022/01/29 03:22:40;;;;;;;11.45;6.18;;;8.00;99.90;;;;;;5072616;28;20187;-85
2022/01/29 03:25:12;;;;;;;9.50;4.55;;;8.90;99.90;;;;;;5067868;28;20124;-85
2022/01/29 03:27:46;;;;;;;14.82;5.10;;;7.30;99.90;;;;;;5072347;28;20049;-85
2022/01/29 03:30:24;;;;;;;7.88;4.50;;;9.00;99.90;;;;;;5071749;28;20132;-85
2022/01/29 03:33:01;;;;;;;10.70;5.00;;;8.00;99.90;;;;;;5090850;28;20059;-84
2022/01/29 03:35:45;;;;;;;;;;;;;;;;;;;;;
2022/01/29 03:38:14;;;;;;;11.15;5.63;;;8.10;99.90;;;;;;5071118;28;43150;-85
2022/01/29 03:40:55;;;;;;;13.95;5.53;;;8.40;99.90;;;;;;5073870;28;20076;-86
2022/01/29 03:43:43;;;;;;;11.53;3.53;;;8.60;99.90;;;;;;5080696;28;20056;-85
2022/01/29 03:46:43;;;;;;;11.85;6.43;;;8.10;99.90;;;;;;5070980;28;20140;-84
2022/01/29 03:49:16;;;;;;;11.90;6.43;;;8.70;99.90;;;;;;5073168;28;20048;-85
2022/01/29 03:51:47;;;;;;;9.95;5.75;;;9.10;99.90;;;;;;5066346;28;20037;-85
2022/01/29 03:54:26;;;;;;;8.43;4.38;;;8.60;99.90;;;;;;5066441;28;20029;-85
2022/01/29 03:57:17;;;;;;;10.73;5.35;;;9.40;99.90;;;;;;5067720;28;20124;-85
2022/01/29 03:59:46;;;;;;;15.38;5.32;;;7.30;99.90;;;;;;5063950;28;20076;-84
2022/01/29 04:02:19;;;;;;;10.77;5.13;;;8.20;99.90;;;;;;5068463;28;20047;-85
2022/01/29 04:04:52;;;;;;;12.88;5.82;;;7.50;99.90;;;;;;5062825;28;20040;-85
2022/01/29 04:07:23;;;;;;;14.38;5.28;;;7.00;99.90;;;;;;5083994;28;20118;-85
2022/01/29 04:09:53;;;;;;;10.70;5.47;;;8.70;99.90;;;;;;5066680;28;20052;-85
2022/01/29 04:12:35;;;;;;;17.48;6.93;;;8.40;99.90;;;;;;5073178;28;20677;-85
2022/01/29 04:15:12;;;;;;;11.80;4.85;;;8.60;99.90;;;;;;5073172;28;20131;-84
2022/01/29 04:17:44;;;;;;;12.32;5.07;;;8.30;99.90;;;;;;5075020;28;20144;-85
2022/01/29 04:20:21;;;;;;;10.07;4.40;;;8.60;99.90;;;;;;5070108;28;20439;-85
2022/01/29 04:22:55;;;;;;;12.18;5.68;;;8.90;99.90;;;;;;5068236;28;20147;-85
2022/01/29 04:25:43;;;;;;;12.77;4.95;;;9.20;99.90;;;;;;5063231;28;20057;-85
2022/01/29 04:28:15;;;;;;;10.05;4.57;;;8.50;99.90;;;;;;5071679;28;20048;-84
2022/01/29 04:30:57;;;;;;;8.77;4.35;;;8.40;99.90;;;;;;5069072;28;20257;-85
2022/01/29 04:33:46;;;;;;;11.00;4.95;;;7.40;99.90;;;;;;5066887;28;20554;-84
2022/01/29 04:36:20;;;;;;;13.13;5.30;;;8.20;99.90;;;;;;5050987;28;20135;-85
2022/01/29 04:38:52;;;;;;;11.43;5.25;;;8.30;99.90;;;;;;5069773;28;20053;-85
2022/01/29 04:41:23;;;;;;;10.10;5.47;;;8.20;99.90;;;;;;5074371;28;20523;-85
2022/01/29 04:44:17;;;;;;;11.77;5.35;;;6.70;99.90;;;;;;5068027;28;20041;-85
2022/01/29 04:46:47;;;;;;;10.45;4.22;;;9.10;99.90;;;;;;5075738;28;20032;-85
2022/01/29 04:49:31;;;;;;;13.73;5.22;;;8.70;99.90;;;;;;5067658;28;20049;-85
2022/01/29 04:52:03;;;;;;;9.32;4.63;;;8.30;99.90;;;;;;5073222;28;20534;-84
2022/01/29 05:06:19;;;;;;;;;;;;;;;;;;;;;
2022/01/29 05:40:28;;;;;;;14.20;4.60;;;8.60;99.90;;;;;;4978429;28;20523;-85
2022/01/29 05:43:59;;;;;;;10.80;5.05;;;8.30;99.90;;;;;;4942608;28;20056;-85
2022/01/29 05:58:08;;;;;;;8.30;4.85;;;8.00;99.90;;;;;;4988802;28;20058;-86
2022/01/29 06:05:11;;;;;;;10.00;4.22;;;8.60;99.90;;;;;;4966664;28;20050;-86
2022/01/29 06:16:08;;;;;;;6.35;3.65;;;9.20;99.90;;;;;;4862341;29;20106;-86
2022/01/29 06:30:20;;;;;;;9.23;3.90;;;8.40;99.90;;;;;;4916868;28;20048;-86
2022/01/29 06:38:01;;;;;;;;;;;;;;;;;;;;;
2022/01/29 06:44:47;;;;;;;;;;;;;;;;;;;;;
2022/01/29 06:48:23;;;;;;;;;;;;;;;;;;;;;
2022/01/29 06:58:41;;;;;;;;;;;;;;;;;;;;;
2022/01/29 07:01:37;;;;;;;;;;;;;;;;;;;;;
2022/01/29 07:05:06;;;;;;;7.45;3.75;;;8.80;99.90;;;;;;4875111;29;40858;-85
2022/01/29 07:11:56;;;;;;;;;;;;;;;;;;;;;
2022/01/29 07:14:40;;;;;;;8.02;3.28;;;9.20;99.90;;;;;;4874111;28;42185;-85
2022/01/29 07:21:19;;;;;;;6.68;3.53;;;10.20;99.90;;;;;;4835968;29;20050;-85
2022/01/29 07:32:22;;;;;;;;;;;;;;;;;;;;;
2022/01/29 07:39:22;;;;;;;;;;;;;;;;;;;;;
2022/01/29 07:56:39;;;;;;;8.80;3.70;;;10.30;99.90;;;;;;4920465;29;20051;-85
2022/01/29 08:03:49;;;;;;;;;;;;;;;;;;;;;
2022/01/29 08:10:37;;;;;;;6.75;3.45;;;9.00;99.90;;;;;;4813203;29;20048;-85
2022/01/29 08:23:54;;;;;;;9.23;4.25;;;10.40;99.90;;;;;;4907023;28;20052;-86
2022/01/29 08:34:32;;;;;;;8.00;3.33;;;8.30;99.90;;;;;;4874827;29;20138;-85
2022/01/29 08:37:47;;;;;;;6.10;3.55;;;9.10;99.90;;;;;;4836298;29;20063;-85
2022/01/29 08:42:03;;;;;;;;;;;;;;;;;;;;;
2022/01/29 09:01:53;;;;;;;6.03;3.07;;;9.30;99.90;;;;;;4943924;28;20051;-82
2022/01/29 09:08:58;;;;;;;8.23;4.22;;;10.70;99.90;;;;;;4927060;28;20076;-84
2022/01/29 09:12:15;;;;;;;6.25;3.67;;;9.50;99.90;;;;;;4938752;28;20082;-83
2022/01/29 09:19:18;;;;;;;7.80;3.63;;;9.00;99.90;;;;;;4998602;28;20165;-83
2022/01/29 09:22:37;;;;;;;;;;;;;;;;;;;;;
2022/01/29 09:30:15;;;;;;;9.27;4.45;;;9.40;99.90;;;;;;4810759;29;20108;-84
2022/01/29 09:33:46;;;;;;;8.88;3.83;;;10.00;99.90;;;;;;4876957;29;20087;-83
2022/01/29 09:41:05;;;;;;;;;;;;;;;;;;;;;
2022/01/29 09:48:01;;;;;;;;;;;;;;;;;;;;;
2022/01/29 09:59:29;;;;;;;6.78;2.92;;;10.10;99.90;;;;;;4980396;28;20051;-80
2022/01/29 10:09:14;;;;;;;;;;;;;;;;;;;;;
2022/01/29 10:12:30;;;;;;;;;;;;;;;;;;;;;
2022/01/29 10:15:58;;;;;;;4.22;2.22;;;10.20;99.90;;;;;;4912267;28;43768;-77
2022/01/29 10:23:03;;;;;;;;;;;;;;;;;;;;;
2022/01/29 10:30:13;;;;;;;4.18;2.25;;;11.70;99.90;;;;;;4898987;28;20049;-80
2022/01/29 10:44:11;;;;;;;2.75;1.52;;;10.30;99.90;;;;;;4993039;28;20050;-81
2022/01/29 10:47:29;;;;;;;2.65;1.80;;;10.80;99.90;;;;;;4972777;28;20054;-80
2022/01/29 10:58:03;;;;;;;;;;;;;;;;;;;;;
2022/01/29 11:04:56;;;;;;;;;;;;;;;;;;;;;
2022/01/29 11:08:30;;;;;;;;;;;;;;;;;;;;;
2022/01/29 11:12:00;;;;;;;1.58;1.15;;;10.60;99.90;;;;;;4892068;28;20619;-81
2022/01/29 11:15:02;;;;;;;1.85;0.90;;;10.40;99.90;;;;;;4935575;28;20050;-82
2022/01/29 11:17:48;;;;;;;1.25;0.95;;;10.60;99.90;;;;;;5008212;28;20633;-80
2022/01/29 11:21:14;;;;;;;1.95;1.15;;;9.30;99.90;;;;;;4998757;28;20049;-83
2022/01/29 11:24:19;;;;;;;;;;;;;;;;;;;;;
2022/01/29 11:27:24;;;;;;;1.48;1.05;;;10.60;99.90;;;;;;4976508;28;39892;-82
2022/01/29 11:30:30;;;;;;;2.00;1.25;;;10.60;99.90;;;;;;4959245;28;20142;-80
2022/01/29 11:33:39;;;;;;;;;;;;;;;;;;;;;
2022/01/29 11:37:03;;;;;;;;;;;;;;;;;;;;;
2022/01/29 11:40:19;;;;;;;2.28;1.00;;;10.30;99.90;;;;;;5057103;28;42518;-84
2022/01/29 11:43:48;;;;;;;1.88;1.02;;;11.20;99.90;;;;;;5031884;28;20965;-84
2022/01/29 11:47:18;;;;;;;1.50;1.00;;;10.60;99.90;;;;;;4991246;28;20047;-86
2022/01/29 11:50:16;;;;;;;2.40;1.30;;;9.10;99.90;;;;;;4999050;28;20046;-85
2022/01/29 11:53:17;;;;;;;1.65;1.08;;;10.90;99.90;;;;;;4996543;28;20098;-84
2022/01/29 11:56:10;;;;;;;;;;;;;;;;;;;;;
2022/01/29 12:02:36;;;;;;;2.00;1.02;;;11.00;99.90;;;;;;5056207;28;20053;-83
2022/01/29 12:05:55;;;;;;;1.45;0.93;;;11.20;99.90;;;;;;5039372;28;20037;-85
2022/01/29 12:08:24;;;;;;;1.85;1.05;;;10.50;99.90;;;;;;5038426;28;20059;-85
2022/01/29 12:11:38;;;;;;;1.05;0.80;;;10.80;99.90;;;;;;5039561;28;20512;-84
2022/01/29 12:14:26;;;;;;;1.45;0.90;;;11.30;99.90;;;;;;5037251;28;20563;-84
2022/01/29 12:17:08;;;;;;;4.07;0.93;;;11.10;99.90;;;;;;5033337;28;20044;-84
2022/01/29 12:20:48;;;;;;;1.00;0.90;;;11.50;99.90;;;;;;5054256;28;20047;-85
2022/01/29 12:23:13;;;;;;;;;;;;;;;;;;;;;
2022/01/29 12:30:29;;;;;;;0.52;0.52;;;11.70;99.90;;;;;;5058347;28;20045;-84
2022/01/29 12:55:21;;;;;;;1.13;0.80;;;10.90;99.90;;;;;;4830183;29;20049;-81
2022/01/29 12:57:51;;;;;;;0.80;0.50;;;10.00;99.90;;;;;;4961919;28;20541;-80
2022/01/29 13:04:35;;;;;;;0.60;0.60;;;11.00;99.90;;;;;;4962146;28;20555;-80
2022/01/29 13:07:49;;;;;;;1.38;0.80;;;12.50;99.90;;;;;;4956036;28;20505;-80
2022/01/29 13:11:11;;;;;;;;;;;;;;;;;;;;;
2022/01/29 13:18:00;;;;;;;;;;;;;;;;;;;;;
2022/01/29 13:28:45;;;;;;;;;;;;;;;;;;;;;
2022/01/29 13:31:14;;;;;;;0.88;0.60;;;10.70;99.90;;;;;;4995865;28;44446;-77
2022/01/29 13:33:46;;;;;;;1.70;0.98;;;11.40;99.90;;;;;;5055093;28;20051;-78
2022/01/29 13:36:40;;;;;;;1.13;0.60;;;11.10;99.90;;;;;;5073762;28;20036;-78
2022/01/29 13:39:07;;;;;;;1.65;0.82;;;11.10;99.90;;;;;;5070517;28;20061;-77
2022/01/29 13:41:36;;;;;;;1.65;0.95;;;11.10;99.90;;;;;;5055340;28;20067;-77
2022/01/29 13:44:12;;;;;;;2.22;1.17;;;11.10;99.90;;;;;;5074362;28;20029;-77
2022/01/29 13:46:41;;;;;;;1.45;1.02;;;11.00;99.90;;;;;;5070412;28;20063;-78
2022/01/29 13:49:13;;;;;;;2.15;0.88;;;11.30;99.90;;;;;;5053176;28;20036;-77
2022/01/29 13:51:45;;;;;;;2.22;1.05;;;11.40;99.90;;;;;;5050667;28;20045;-78
2022/01/29 13:54:22;;;;;;;2.05;1.00;;;11.40;99.90;;;;;;5049522;28;20049;-77
2022/01/29 13:57:04;;;;;;;1.25;1.00;;;11.40;99.90;;;;;;5053405;28;20045;-76
2022/01/29 13:59:30;;;;;;;1.35;0.90;;;12.00;99.90;;;;;;5048776;28;20419;-76
2022/01/29 14:02:03;;;;;;;1.48;0.95;;;11.50;99.90;;;;;;5053484;28;20130;-75
2022/01/29 14:04:34;;;;;;;0.80;0.80;;;11.00;99.90;;;;;;5044984;28;20097;-76
2022/01/29 14:07:19;;;;;;;3.20;0.97;;;10.90;99.90;;;;;;5050554;28;20585;-76
2022/01/29 14:09:48;;;;;;;2.38;1.30;;;11.50;99.90;;;;;;5069599;28;20264;-77
2022/01/29 14:12:29;;;;;;;2.70;0.93;;;12.40;99.90;;;;;;5068673;28;20468;-77
2022/01/29 14:14:55;;;;;;;1.20;0.82;;;11.60;99.90;;;;;;5057386;28;20075;-77
2022/01/29 14:17:22;;;;;;;1.60;0.90;;;11.00;99.90;;;;;;5053630;28;20254;-77
2022/01/29 14:19:56;;;;;;;3.50;1.15;;;11.00;99.90;;;;;;5077968;28;20036;-76
2022/01/29 14:22:24;;;;;;;2.30;1.27;;;11.00;99.90;;;;;;5072845;28;20045;-78
2022/01/29 14:24:50;;;;;;;1.02;0.95;;;11.00;99.90;;;;;;5068169;28;20036;-78
2022/01/29 14:27:15;;;;;;;0.77;0.70;;;11.00;99.90;;;;;;5075090;28;20032;-82
2022/01/29 14:29:43;;;;;;;1.05;0.63;;;11.00;99.90;;;;;;5054466;28;20041;-76
2022/01/29 14:32:10;;;;;;;1.15;0.80;;;11.00;99.90;;;;;;5065093;28;20041;-76
2022/01/29 14:34:36;;;;;;;4.90;1.20;;;11.00;99.90;;;;;;5061148;28;20132;-76
2022/01/29 14:37:02;;;;;;;2.08;1.13;;;11.10;99.90;;;;;;5074091;28;20570;-76
2022/01/29 14:39:29;;;;;;;1.80;1.10;;;11.10;99.90;;;;;;5053299;28;20136;-77
2022/01/29 14:41:56;;;;;;;1.05;0.77;;;11.20;99.90;;;;;;5053240;28;20049;-76
2022/01/29 14:44:22;;;;;;;1.10;0.95;;;11.20;99.90;;;;;;5048633;28;20060;-78
2022/01/29 14:46:48;;;;;;;2.13;1.30;;;11.20;99.90;;;;;;5068982;28;20040;-77
2022/01/29 14:49:25;;;;;;;1.25;0.65;;;11.20;99.90;;;;;;5045709;28;20032;-84
2022/01/29 14:51:53;;;;;;;3.00;0.90;;;11.20;99.90;;;;;;5069561;28;20404;-75
2022/01/29 14:54:19;;;;;;;1.38;0.88;;;11.20;99.90;;;;;;5073902;28;20041;-76
2022/01/29 14:56:45;;;;;;;1.55;0.88;;;11.20;99.90;;;;;;5068038;28;20037;-75
2022/01/29 15:02:33;;;;;;;0.97;0.53;;;11.30;99.90;;;;;;5063595;28;20051;-79
2022/01/29 15:05:46;;;;;;;0.68;0.57;;;11.50;99.90;;;;;;5069834;28;20035;-79
2022/01/29 15:08:26;;;;;;;4.43;0.90;;;10.30;99.90;;;;;;5075335;28;20040;-79
2022/01/29 15:11:35;;;;;;;1.02;0.70;;;11.30;99.90;;;;;;5063060;28;20033;-78
2022/01/29 15:14:19;;;;;;;1.38;0.68;;;11.20;99.90;;;;;;5050767;28;20051;-78
2022/01/29 15:16:48;;;;;;;1.05;0.80;;;11.20;99.90;;;;;;5049323;28;20044;-78
2022/01/29 15:19:14;;;;;;;2.10;0.90;;;10.60;99.90;;;;;;5072765;28;20167;-76
2022/01/29 15:21:39;;;;;;;1.08;0.57;;;11.10;99.90;;;;;;5053192;28;20074;-77
2022/01/29 15:24:06;;;;;;;0.85;0.75;;;11.10;99.90;;;;;;5055359;28;20052;-78
2022/01/29 15:26:34;;;;;;;0.85;0.73;;;11.10;99.90;;;;;;5051830;28;20037;-77
2022/01/29 15:29:01;;;;;;;0.60;0.60;;;11.10;99.90;;;;;;5073835;28;20043;-78
2022/01/29 15:31:26;;;;;;;0.65;0.43;;;11.10;99.90;;;;;;5072106;28;20067;-77
2022/01/29 15:33:54;;;;;;;0.60;0.60;;;11.10;99.90;;;;;;5057550;28;20132;-78
2022/01/29 15:36:21;;;;;;;0.82;0.60;;;11.10;99.90;;;;;;5051392;28;20116;-77
2022/01/29 15:38:47;;;;;;;0.50;0.50;;;11.10;99.90;;;;;;5052793;28;20098;-75
2022/01/29 15:41:13;;;;;;;1.13;0.90;;;11.10;99.90;;;;;;5046373;28;20046;-75
2022/01/29 15:43:39;;;;;;;0.57;0.50;;;11.10;99.90;;;;;;5026760;28;20050;-81
2022/01/29 15:46:07;;;;;;;1.08;0.98;;;11.10;99.90;;;;;;5031826;28;20037;-82
2022/01/29 15:48:35;;;;;;;1.13;0.60;;;11.10;99.90;;;;;;5038296;28;20041;-81
2022/01/29 15:51:02;;;;;;;0.77;0.77;;;11.10;99.90;;;;;;5039189;28;20040;-79
2022/01/29 15:53:28;;;;;;;0.60;0.47;;;11.10;99.90;;;;;;5031394;28;20055;-83
2022/01/29 15:55:54;;;;;;;1.08;0.82;;;11.40;99.90;;;;;;5032989;28;20034;-80
2022/01/29 15:58:22;;;;;;;1.73;1.00;;;11.00;99.90;;;;;;5043993;28;20048;-80
2022/01/29 16:00:56;;;;;;;3.35;0.82;;;11.00;99.90;;;;;;5053337;28;20033;-80
2022/01/29 16:03:22;;;;;;;1.08;0.75;;;11.00;99.90;;;;;;5060399;28;20613;-86
2022/01/29 16:05:54;;;;;;;0.93;0.60;;;11.00;99.90;;;;;;5054592;28;20056;-80
2022/01/29 16:08:21;;;;;;;1.75;1.00;;;11.00;99.90;;;;;;5039590;28;20045;-80
2022/01/29 16:10:54;;;;;;;0.98;0.70;;;11.00;99.90;;;;;;5034771;28;20045;-84
2022/01/29 16:13:21;;;;;;;0.93;0.75;;;11.00;99.90;;;;;;5037024;28;20322;-81
2022/01/29 16:15:48;;;;;;;0.55;0.55;;;11.00;99.90;;;;;;5050274;28;20712;-83
2022/01/29 16:18:14;;;;;;;1.23;0.82;;;10.90;99.90;;;;;;5033430;28;20049;-80
2022/01/29 16:20:43;;;;;;;1.70;0.90;;;11.00;99.90;;;;;;5036170;28;20048;-81
2022/01/29 16:23:10;;;;;;;0.98;0.88;;;11.00;99.90;;;;;;5036740;28;20041;-81
2022/01/29 16:25:38;;;;;;;1.02;0.88;;;11.00;99.90;;;;;;5033368;28;20579;-80
2022/01/29 16:28:10;;;;;;;2.15;0.98;;;10.90;99.90;;;;;;5035495;28;20048;-81
2022/01/29 16:30:37;;;;;;;0.63;0.40;;;10.90;99.90;;;;;;5037647;28;20036;-80
2022/01/29 16:33:03;;;;;;;0.93;0.73;;;10.90;99.90;;;;;;5036075;28;20053;-79
2022/01/29 16:35:29;;;;;;;1.17;0.70;;;10.90;99.90;;;;;;5032906;28;20503;-80
2022/01/29 16:37:55;;;;;;;1.33;0.80;;;10.90;99.90;;;;;;5033163;28;20054;-81
2022/01/29 16:40:24;;;;;;;1.17;0.88;;;10.90;99.90;;;;;;5039870;28;20055;-81
2022/01/29 16:42:51;;;;;;;1.30;0.50;;;10.90;99.90;;;;;;5043905;28;20049;-78
2022/01/29 16:45:18;;;;;;;1.73;0.93;;;10.90;99.90;;;;;;5055889;28;20503;-80
2022/01/29 16:55:11;;;;;;;0.87;0.70;;;12.40;99.90;;;;;;5084747;28;20048;-80
2022/01/29 16:58:01;;;;;;;1.70;0.90;;;10.70;99.90;;;;;;4979936;28;20869;-81
2022/01/29 17:14:08;;;;;;;1.13;0.70;;;10.80;99.90;;;;;;4965756;28;20047;-83
2022/01/29 17:16:45;;;;;;;6.05;1.00;;;11.00;99.90;;;;;;4992041;28;20508;-84
2022/01/29 17:19:15;;;;;;;1.88;1.00;;;11.20;99.90;;;;;;4994778;28;20046;-86
2022/01/29 17:21:40;;;;;;;1.40;0.98;;;10.90;99.90;;;;;;5046541;28;20045;-83
2022/01/29 17:24:11;;;;;;;1.90;1.23;;;11.00;99.90;;;;;;5090173;28;20054;-83
2022/01/29 17:26:37;;;;;;;1.73;1.00;;;11.10;99.90;;;;;;5073397;28;20152;-86
2022/01/29 17:29:10;;;;;;;1.05;0.98;;;11.70;99.90;;;;;;5068591;28;20585;-85
2022/01/29 17:31:36;;;;;;;2.47;1.00;;;11.10;99.90;;;;;;5069535;28;20040;-87
2022/01/29 17:34:07;;;;;;;2.05;1.23;;;10.90;99.90;;;;;;5096308;28;20403;-85
2022/01/29 17:36:33;;;;;;;0.90;0.85;;;11.30;99.90;;;;;;5075832;28;20085;-84
2022/01/29 17:39:32;;;;;;;1.27;0.70;;;10.90;99.90;;;;;;5097658;28;20530;-84
2022/01/29 17:42:00;;;;;;;1.55;0.90;;;11.00;99.90;;;;;;5063451;28;20044;-86
2022/01/29 17:44:45;;;;;;;2.20;1.15;;;10.80;99.90;;;;;;5065657;28;20036;-85
2022/01/29 17:47:34;;;;;;;1.13;1.00;;;12.00;99.90;;;;;;5066770;28;20040;-85
2022/01/29 17:50:07;;;;;;;3.38;1.65;;;11.60;99.90;;;;;;5063760;28;20045;-85
2022/01/29 17:53:00;;;;;;;1.52;1.25;;;12.10;99.90;;;;;;5073208;28;20119;-88
2022/01/29 17:55:38;;;;;;;1.52;0.75;;;11.10;99.90;;;;;;5075056;28;20074;-81
2022/01/29 17:58:16;;;;;;;2.47;0.95;;;11.60;99.90;;;;;;5067609;28;20091;-84
2022/01/29 18:00:58;;;;;;;1.10;0.60;;;12.10;99.90;;;;;;5062254;28;20052;-81
2022/01/29 18:04:20;;;;;;;1.33;1.10;;;11.00;99.90;;;;;;5069624;28;20041;-82
2022/01/29 18:06:54;;;;;;;1.87;1.13;;;11.80;99.90;;;;;;5067698;28;20575;-83
2022/01/29 18:17:39;;;;;;;;;;;;;;;;;;;;;
2022/01/29 18:20:28;;;;;;;1.48;1.17;;;12.20;99.90;;;;;;5012267;28;42083;-83
2022/01/29 18:23:41;;;;;;;3.83;1.20;;;11.50;99.90;;;;;;5045194;28;20052;-82
2022/01/29 18:33:00;;;;;;;2.10;1.10;;;10.60;99.90;;;;;;5014908;28;20663;-79
2022/01/29 18:36:07;;;;;;;;;;;;;;;;;;;;;
2022/01/29 18:39:13;;;;;;;2.80;1.67;;;9.80;99.90;;;;;;5068756;28;43373;-83
2022/01/29 18:42:15;;;;;;;2.95;1.40;;;11.70;99.90;;;;;;5058123;28;20045;-83
2022/01/29 18:44:42;;;;;;;1.67;1.10;;;9.70;99.90;;;;;;5017442;28;20061;-78
2022/01/29 18:47:10;;;;;;;1.38;1.15;;;11.20;99.90;;;;;;5015657;28;20045;-79
2022/01/29 18:49:38;;;;;;;2.40;1.30;;;10.60;99.90;;;;;;4995645;28;20147;-80
2022/01/29 18:52:05;;;;;;;2.15;1.40;;;13.00;99.90;;;;;;5033142;28;20050;-81
2022/01/29 18:54:31;;;;;;;3.92;2.13;;;10.60;99.90;;;;;;5033675;28;20053;-76
2022/01/29 18:57:02;;;;;;;3.60;1.30;;;10.60;99.90;;;;;;5014826;28;20069;-84
2022/01/29 18:59:28;;;;;;;3.15;1.67;;;10.60;99.90;;;;;;5020750;28;20049;-82
2022/01/29 19:01:54;;;;;;;3.50;1.48;;;10.70;99.90;;;;;;5030881;28;20078;-82
2022/01/29 19:04:19;;;;;;;3.30;1.45;;;10.70;99.90;;;;;;5019949;28;20527;-83
2022/01/29 19:06:45;;;;;;;2.38;1.60;;;10.70;99.90;;;;;;5019059;28;20037;-82
2022/01/29 19:09:11;;;;;;;4.55;1.55;;;10.60;99.90;;;;;;5031059;28;20053;-82
2022/01/29 19:11:37;;;;;;;2.88;1.50;;;10.60;99.90;;;;;;5016611;28;20764;-82
2022/01/29 19:14:03;;;;;;;2.10;1.20;;;10.70;99.90;;;;;;5036505;28;20073;-84
2022/01/29 19:16:29;;;;;;;3.58;1.25;;;10.70;99.90;;;;;;5033963;28;20063;-85
2022/01/29 19:19:13;;;;;;;1.60;1.20;;;10.70;99.90;;;;;;5021320;28;20045;-85
2022/01/29 19:21:39;;;;;;;3.75;1.70;;;11.20;99.90;;;;;;5043565;28;20528;-77
2022/01/29 19:24:05;;;;;;;2.92;1.20;;;10.70;99.90;;;;;;5074052;28;20046;-79
2022/01/29 19:26:34;;;;;;;3.35;1.45;;;10.40;99.90;;;;;;5071328;28;20041;-81
2022/01/29 19:29:00;;;;;;;3.10;1.70;;;10.70;99.90;;;;;;5067701;28;20080;-81
2022/01/29 19:31:29;;;;;;;2.30;1.30;;;10.70;99.90;;;;;;5071853;28;20036;-80
2022/01/29 19:33:56;;;;;;;3.15;1.27;;;10.70;99.90;;;;;;5067309;28;20450;-87
2022/01/29 19:36:22;;;;;;;1.85;1.33;;;10.60;99.90;;;;;;5067213;28;20041;-78
2022/01/29 19:38:48;;;;;;;2.40;1.35;;;10.60;99.90;;;;;;5063343;28;20041;-82
2022/01/29 19:41:14;;;;;;;2.35;1.33;;;10.60;99.90;;;;;;5068634;28;20124;-81
2022/01/29 19:43:39;;;;;;;2.47;1.48;;;10.60;99.90;;;;;;5068149;28;20130;-81
2022/01/29 19:46:06;;;;;;;2.38;1.20;;;10.60;99.90;;;;;;5052576;28;20419;-80
2022/01/29 19:48:32;;;;;;;2.72;1.52;;;10.60;99.90;;;;;;5052275;28;20049;-78
2022/01/29 19:50:58;;;;;;;2.65;1.67;;;10.50;99.90;;;;;;5075741;28;20104;-79
2022/01/29 19:53:25;;;;;;;5.13;1.67;;;10.70;99.90;;;;;;5045368;28;20060;-79
2022/01/29 19:55:51;;;;;;;3.03;1.67;;;10.70;99.90;;;;;;5063040;28;20539;-79
2022/01/29 19:58:16;;;;;;;2.13;1.38;;;10.70;99.90;;;;;;5052684;28;20044;-79
2022/01/29 20:00:42;;;;;;;2.88;1.50;;;10.70;99.90;;;;;;5071290;28;20056;-79